Aérodrome :
LOGIN :

S'inscrire | Disclaimer

   EN    FR    IT 

 










Légende :    VFR   VFR Marginal   IFR   IFR Intensif   IFR Très Intensif
Visi : 
Plafond : 
>= 8 km
>= 3000ft
5 à 8 km
1000 à 3000 ft
1500m à 5 km
500 à 1000 ft
800 à 1500m
200 à 500 ft
< 800m
< 200 ft
Symboles :   Orages  Brouillard  Fortes neiges  Fortes précipitations  Vent > 20 kt
SIGMETs :   Divers  Orages  Givrage  Turbulence  Onde Orograph.  Cendres Volcan.







- Altitude de l'aérodrome : 1106 ft
- Voir les cartes d'approche


LFSO - Nancy / Ochey

DERNIER METAR :
  • 181130Z AUTO 05012KT 020V080 CAVOK 17/01 Q1024 BECMG 06015G25KT

METARs EXPIRÉS :
  • 181100Z AUTO 05014KT 020V080 CAVOK 16/02 Q1024 BECMG 06015G25KT
  • 181030Z AUTO 05011KT 020V100 CAVOK 15/03 Q1024 BECMG 06015G25KT
  • 181000Z AUTO 04013KT 010V070 CAVOK 15/04 Q1024 BECMG 06015G25KT
  • 180930Z AUTO 05013KT CAVOK 15/04 Q1024 BECMG 06015G25KT
  • 180900Z AUTO 05014KT 020V080 CAVOK 14/03 Q1024 BECMG 06015G25KT

TAF TAF LFSO
Valide du 18 à 09h jusqu'au 19 à 09h UTC


180800Z 1809/1909 06015G25KT CAVOK
BECMG 1816/1818 06010KT
Pas de NOTAMs connus pour ce terrain.



MET'MAP, la Météo Aéronautique d'un coup d'oeil ! - Copyright ORBIFLY Décembre 2007 - Disclaimer

ORBIFLY MET'MAP TEAM :

Programmation & Développement : Alexandra Zaïnal
Conception & Développement : Baudouin d'Aumeries
Co-Programmation & Développement : Marc-Olivier Méhu
Soutien technique & logistique : Manuel Goepfert

Contact : metmap@orbifly.com




SOURCES & CREDITS :

   NOAA